createdAt,value
2023-02-27T00:01:41.031Z,1.27
2023-02-27T00:03:42.600Z,1.50
2023-02-27T00:05:44.340Z,1.60
2023-02-27T00:07:46.091Z,1.53
2023-02-27T00:09:50.015Z,1.30
2023-02-27T00:11:53.607Z,1.50
2023-02-27T00:13:55.055Z,1.40
2023-02-27T00:15:56.831Z,1.30
2023-02-27T00:18:00.073Z,1.40
2023-02-27T00:20:02.333Z,1.67
2023-02-27T00:22:04.102Z,1.27
2023-02-27T00:24:06.094Z,1.03
2023-02-27T00:26:09.565Z,1.33
2023-02-27T00:28:11.801Z,1.40
2023-02-27T00:30:15.939Z,1.50
2023-02-27T00:32:17.549Z,1.77
2023-02-27T00:34:21.906Z,1.30
2023-02-27T00:36:23.747Z,1.40
2023-02-27T00:38:26.395Z,1.17
2023-02-27T00:40:28.153Z,1.23
2023-02-27T00:42:30.896Z,1.27
2023-02-27T00:44:32.589Z,1.27
2023-02-27T00:46:37.086Z,1.40
2023-02-27T00:48:42.821Z,1.13
2023-02-27T00:50:44.714Z,0.97
2023-02-27T00:52:46.445Z,1.20
2023-02-27T00:54:48.342Z,1.40
2023-02-27T00:56:50.074Z,1.30
2023-02-27T00:58:51.717Z,1.60
2023-02-27T01:00:59.840Z,1.20
2023-02-27T01:03:09.614Z,1.20
2023-02-27T01:05:11.560Z,1.17
2023-02-27T01:07:15.390Z,1.27
2023-02-27T01:09:16.987Z,1.20
2023-02-27T01:11:19.226Z,1.37
2023-02-27T01:13:24.039Z,1.50
2023-02-27T01:15:25.690Z,1.30
2023-02-27T01:17:27.268Z,1.20
2023-02-27T01:19:28.957Z,1.50
2023-02-27T01:21:32.841Z,1.30
2023-02-27T01:23:34.511Z,1.47
2023-02-27T01:25:41.368Z,1.30
2023-02-27T01:27:43.159Z,1.33
2023-02-27T01:29:44.800Z,1.47
2023-02-27T01:31:48.688Z,1.37
2023-02-27T01:33:50.401Z,1.40
2023-02-27T01:35:52.347Z,1.20
2023-02-27T01:37:54.081Z,1.30
2023-02-27T01:39:55.818Z,1.00
2023-02-27T01:42:01.018Z,1.10
2023-02-27T01:44:12.630Z,1.20
2023-02-27T01:46:14.408Z,1.33
2023-02-27T01:48:24.721Z,1.13
2023-02-27T01:50:26.814Z,1.00
2023-02-27T01:52:30.967Z,1.17
2023-02-27T01:54:40.429Z,1.53
2023-02-27T01:56:45.475Z,1.27
2023-02-27T01:58:50.251Z,1.50
2023-02-27T02:00:53.006Z,1.23
2023-02-27T02:03:04.874Z,1.10
2023-02-27T02:05:07.539Z,1.37
2023-02-27T02:07:14.902Z,1.10
2023-02-27T02:09:19.558Z,1.37
2023-02-27T02:11:22.627Z,1.03
2023-02-27T02:13:24.987Z,1.30
2023-02-27T02:15:36.549Z,1.07
2023-02-27T02:18:12.350Z,1.20
2023-02-27T02:20:48.632Z,1.30
2023-02-27T02:23:15.216Z,1.20
2023-02-27T02:25:42.870Z,1.00
2023-02-27T02:28:02.960Z,1.13
2023-02-27T02:30:23.688Z,1.23
2023-02-27T02:32:44.001Z,1.10
2023-02-27T02:35:18.558Z,1.10
2023-02-27T02:37:51.467Z,1.10
2023-02-27T02:40:02.869Z,1.10
2023-02-27T02:42:21.931Z,1.00
2023-02-27T02:44:34.060Z,1.20
2023-02-27T02:47:02.344Z,1.30
2023-02-27T02:49:41.620Z,1.20
2023-02-27T02:52:03.322Z,1.00
2023-02-27T02:54:13.077Z,1.40
2023-02-27T02:56:42.946Z,1.00
2023-02-27T02:59:01.628Z,1.30
2023-02-27T03:01:17.359Z,1.27
2023-02-27T03:03:28.187Z,1.13
2023-02-27T03:05:35.924Z,1.30
2023-02-27T03:07:51.125Z,1.20
2023-02-27T03:10:00.892Z,1.10
2023-02-27T03:12:10.256Z,1.53
2023-02-27T03:14:41.177Z,1.30
2023-02-27T03:16:46.030Z,1.27
2023-02-27T03:19:03.302Z,1.60
2023-02-27T03:21:11.805Z,1.17
2023-02-27T03:25:40.873Z,1.10
2023-02-27T03:28:00.833Z,1.13
2023-02-27T03:30:10.365Z,1.53
2023-02-27T03:32:44.074Z,1.10
2023-02-27T03:34:46.038Z,1.43
2023-02-27T03:36:52.760Z,1.33
2023-02-27T03:39:09.459Z,1.47
2023-02-27T03:41:18.668Z,1.20
2023-02-27T03:43:51.717Z,1.23
2023-02-27T03:45:56.513Z,1.00
2023-02-27T03:47:58.617Z,1.67
2023-02-27T03:50:02.948Z,1.50
2023-02-27T03:52:04.763Z,1.33
2023-02-27T03:54:14.789Z,1.03
2023-02-27T03:56:20.482Z,1.40
2023-02-27T03:58:22.262Z,1.17
2023-02-27T04:00:26.141Z,1.30
2023-02-27T04:02:28.670Z,1.30
2023-02-27T04:04:32.563Z,1.90
2023-02-27T04:07:15.922Z,1.33
2023-02-27T04:09:38.035Z,1.50
2023-02-27T04:12:03.196Z,1.20
2023-02-27T04:14:19.526Z,1.20
2023-02-27T04:16:47.132Z,1.50
2023-02-27T04:19:27.408Z,1.50
2023-02-27T04:21:39.439Z,1.30
2023-02-27T04:23:49.291Z,1.40
2023-02-27T04:26:16.023Z,1.40
2023-02-27T04:28:22.334Z,1.40
2023-02-27T04:30:46.256Z,1.60
2023-02-27T04:33:03.371Z,1.50
2023-02-27T04:35:11.171Z,1.50
2023-02-27T04:37:24.564Z,1.40
2023-02-27T04:39:30.968Z,1.60
2023-02-27T04:41:45.059Z,2.80
2023-02-27T04:43:49.534Z,5.30
2023-02-27T04:45:53.345Z,7.50
2023-02-27T04:48:03.641Z,7.30
2023-02-27T04:50:11.001Z,7.57
2023-02-27T04:52:19.094Z,6.57
2023-02-27T04:54:36.200Z,5.27
2023-02-27T04:56:48.685Z,4.40
2023-02-27T04:58:54.832Z,3.60
2023-02-27T05:01:04.781Z,3.10
2023-02-27T05:03:17.918Z,2.50
2023-02-27T05:05:25.196Z,2.50
2023-02-27T05:07:31.552Z,1.70
2023-02-27T05:09:58.319Z,1.90
2023-02-27T05:12:10.909Z,2.00
2023-02-27T05:14:16.111Z,1.80
2023-02-27T05:16:29.559Z,1.70
2023-02-27T05:18:31.356Z,1.80
2023-02-27T05:20:56.116Z,1.90
2023-02-27T05:23:46.150Z,1.90
2023-02-27T05:26:24.439Z,1.97
2023-02-27T05:28:53.717Z,2.90
2023-02-27T05:31:14.456Z,3.20
2023-02-27T05:33:28.989Z,3.23
2023-02-27T05:35:36.612Z,3.10
2023-02-27T05:38:09.659Z,3.23
2023-02-27T05:40:15.323Z,2.60
2023-02-27T05:42:34.415Z,2.50
2023-02-27T05:44:42.765Z,2.40
2023-02-27T05:46:56.166Z,2.20
2023-02-27T05:49:03.937Z,1.80
2023-02-27T05:51:09.199Z,2.23
2023-02-27T05:53:16.690Z,2.10
2023-02-27T05:55:30.021Z,2.20
2023-02-27T05:57:47.514Z,2.17
2023-02-27T06:00:07.644Z,2.27
2023-02-27T06:02:13.571Z,2.20
2023-02-27T06:04:15.406Z,2.10
2023-02-27T06:06:19.035Z,2.23
2023-02-27T06:08:22.399Z,2.53
2023-02-27T06:10:23.996Z,2.60
2023-02-27T06:12:28.722Z,2.37
2023-02-27T06:14:30.600Z,2.40
2023-02-27T06:16:32.749Z,2.40
2023-02-27T06:18:34.571Z,2.30
2023-02-27T06:20:41.798Z,2.67
2023-02-27T06:22:43.676Z,3.70
2023-02-27T06:24:45.889Z,3.53
2023-02-27T06:26:50.030Z,3.63
2023-02-27T06:28:51.780Z,3.40
2023-02-27T06:30:55.389Z,3.10
2023-02-27T06:32:57.523Z,3.23
2023-02-27T06:34:59.244Z,3.33
2023-02-27T06:37:03.222Z,3.00
2023-02-27T06:39:06.838Z,2.80
2023-02-27T06:41:08.357Z,2.63
2023-02-27T06:43:10.060Z,3.27
2023-02-27T06:45:14.026Z,3.40
2023-02-27T06:47:16.112Z,4.90
2023-02-27T06:49:18.981Z,5.07
2023-02-27T06:51:20.554Z,5.67
2023-02-27T06:53:23.561Z,5.03
2023-02-27T06:55:25.764Z,5.57
2023-02-27T06:57:27.348Z,5.40
2023-02-27T06:59:33.035Z,5.43
2023-02-27T07:01:35.805Z,7.30
2023-02-27T07:03:37.526Z,8.20
2023-02-27T07:05:41.236Z,8.53
2023-02-27T07:07:43.815Z,7.60
2023-02-27T07:09:46.133Z,7.37
2023-02-27T07:11:47.956Z,7.37
2023-02-27T07:13:50.033Z,5.90
2023-02-27T07:15:52.407Z,5.40
2023-02-27T07:17:54.465Z,4.57
2023-02-27T07:19:56.159Z,3.97
2023-02-27T07:21:57.665Z,3.80
2023-02-27T07:23:59.360Z,3.63
2023-02-27T07:26:01.064Z,3.30
2023-02-27T07:28:02.740Z,2.80
2023-02-27T07:30:05.017Z,2.67
2023-02-27T07:32:07.515Z,2.40
2023-02-27T07:34:15.977Z,2.00
2023-02-27T07:36:17.919Z,2.30
2023-02-27T07:38:19.630Z,2.20
2023-02-27T07:40:21.492Z,2.43
2023-02-27T07:42:23.410Z,2.13
2023-02-27T07:44:24.927Z,2.07
2023-02-27T07:46:27.937Z,2.07
2023-02-27T07:48:31.227Z,2.00
2023-02-27T07:50:32.845Z,2.03
2023-02-27T07:52:34.277Z,1.90
2023-02-27T07:54:37.588Z,1.63
2023-02-27T07:56:39.494Z,1.80
2023-02-27T07:58:41.216Z,1.80
2023-02-27T08:00:43.329Z,1.60
2023-02-27T08:02:45.094Z,1.80
2023-02-27T08:04:47.237Z,1.80
2023-02-27T08:06:48.870Z,1.60
2023-02-27T08:08:51.788Z,1.70
2023-02-27T08:10:53.460Z,1.63
2023-02-27T08:12:55.320Z,1.97
2023-02-27T08:14:57.037Z,1.43
2023-02-27T08:17:01.637Z,1.60
2023-02-27T08:19:03.538Z,1.53
2023-02-27T08:21:07.867Z,1.50
2023-02-27T08:23:09.699Z,1.60
2023-02-27T08:25:11.541Z,1.60
2023-02-27T08:27:19.147Z,1.37
2023-02-27T08:29:21.950Z,1.47
2023-02-27T08:31:23.848Z,1.20
2023-02-27T08:33:26.150Z,1.10
2023-02-27T08:35:31.919Z,1.60
2023-02-27T08:37:33.944Z,1.40
2023-02-27T08:39:35.738Z,1.50
2023-02-27T08:41:37.701Z,1.23
2023-02-27T08:43:39.340Z,1.53
2023-02-27T08:45:41.040Z,1.10
2023-02-27T08:47:45.324Z,1.20
2023-02-27T08:49:49.345Z,1.43
2023-02-27T08:51:56.471Z,1.40
2023-02-27T08:54:04.264Z,1.30
2023-02-27T08:56:06.344Z,1.43
2023-02-27T08:58:08.621Z,1.40
2023-02-27T09:00:11.871Z,1.70
2023-02-27T09:02:13.926Z,1.30
2023-02-27T09:04:16.326Z,1.73
2023-02-27T09:06:20.430Z,1.50
2023-02-27T09:08:23.113Z,1.20
2023-02-27T09:10:25.173Z,1.37
2023-02-27T09:12:26.670Z,1.37
2023-02-27T09:14:28.424Z,1.50
2023-02-27T09:16:30.691Z,1.27
2023-02-27T09:18:32.658Z,1.20
2023-02-27T09:20:36.099Z,1.20
2023-02-27T09:22:38.407Z,1.10
2023-02-27T09:24:40.323Z,1.30
2023-02-27T09:26:46.091Z,1.43
2023-02-27T09:28:51.849Z,1.53
2023-02-27T09:30:53.687Z,1.57
2023-02-27T09:32:55.237Z,1.63
2023-02-27T09:34:56.741Z,1.50
2023-02-27T09:36:59.991Z,1.50
2023-02-27T09:39:01.617Z,1.60
2023-02-27T09:41:06.100Z,1.50
2023-02-27T09:43:15.495Z,1.50
2023-02-27T09:45:26.442Z,1.58
2023-02-27T09:47:35.482Z,1.77
2023-02-27T09:49:51.665Z,2.10
2023-02-27T09:51:53.693Z,2.08
2023-02-27T09:54:00.002Z,1.90
2023-02-27T09:56:10.988Z,1.50
2023-02-27T09:58:31.315Z,1.50
2023-02-27T10:00:38.609Z,1.42
2023-02-27T10:02:58.616Z,1.35
2023-02-27T10:05:31.717Z,1.25
2023-02-27T10:07:48.606Z,1.38
2023-02-27T10:10:11.295Z,1.83
2023-02-27T10:12:35.999Z,1.58
2023-02-27T10:14:49.866Z,1.73
2023-02-27T10:16:53.540Z,1.17
2023-02-27T10:19:06.159Z,1.45
2023-02-27T10:21:18.445Z,1.13
2023-02-27T10:23:31.972Z,1.35
2023-02-27T10:25:39.996Z,1.10
2023-02-27T10:27:46.553Z,1.30
2023-02-27T10:29:48.409Z,1.10
2023-02-27T10:31:59.540Z,1.00
2023-02-27T10:34:01.764Z,1.10
2023-02-27T10:36:12.449Z,1.00
2023-02-27T10:38:31.975Z,1.00
2023-02-27T10:40:40.327Z,1.10
2023-02-27T10:42:42.222Z,1.13
2023-02-27T10:44:44.109Z,1.30
2023-02-27T10:46:46.204Z,1.30
2023-02-27T10:48:48.033Z,1.58
2023-02-27T10:50:53.840Z,1.15
2023-02-27T10:53:01.102Z,1.15
2023-02-27T10:55:19.487Z,1.10
2023-02-27T10:57:30.437Z,1.02
2023-02-27T10:59:36.315Z,0.90
2023-02-27T11:01:51.712Z,0.80
2023-02-27T11:03:56.751Z,1.00
2023-02-27T11:06:01.997Z,0.95
2023-02-27T11:08:31.572Z,1.08
2023-02-27T11:10:33.302Z,1.10
2023-02-27T11:12:35.284Z,0.77
2023-02-27T11:14:48.825Z,0.93
2023-02-27T11:16:52.754Z,1.10
2023-02-27T11:18:54.575Z,1.00
2023-02-27T11:21:22.123Z,0.90
2023-02-27T11:23:26.840Z,1.00
2023-02-27T11:25:28.633Z,0.77
2023-02-27T11:27:30.752Z,0.80
2023-02-27T11:29:34.797Z,1.02
2023-02-27T11:31:38.033Z,0.82
2023-02-27T11:33:47.902Z,1.10
2023-02-27T11:35:56.882Z,1.05
2023-02-27T11:38:04.037Z,1.10
2023-02-27T11:40:30.507Z,1.08
2023-02-27T11:42:41.783Z,1.38
2023-02-27T11:46:11.901Z,1.63
2023-02-27T11:47:49.553Z,1.45
2023-02-27T11:49:56.957Z,1.30
2023-02-27T11:52:12.020Z,1.58
2023-02-27T11:54:42.562Z,1.30
2023-02-27T11:56:58.292Z,1.35
2023-02-27T11:59:40.472Z,1.70
2023-02-27T12:01:51.053Z,2.10
2023-02-27T12:04:04.167Z,1.80
2023-02-27T12:06:17.297Z,1.95
2023-02-27T12:08:36.700Z,1.50
2023-02-27T12:10:49.482Z,1.52
2023-02-27T12:12:57.380Z,1.75
2023-02-27T12:15:15.320Z,1.52
2023-02-27T12:17:26.955Z,1.10
2023-02-27T12:19:38.693Z,1.40
2023-02-27T12:21:49.592Z,1.30
2023-02-27T12:24:21.317Z,1.40
2023-02-27T12:26:30.101Z,1.02
2023-02-27T12:29:09.369Z,0.95
2023-02-27T12:31:35.528Z,1.20
2023-02-27T12:34:05.596Z,1.00
2023-02-27T12:36:13.076Z,1.02
2023-02-27T12:38:15.316Z,0.90
2023-02-27T12:40:19.492Z,0.90
2023-02-27T12:42:58.950Z,1.48
2023-02-27T12:45:06.833Z,1.40
2023-02-27T12:47:32.950Z,1.20
2023-02-27T12:49:48.263Z,1.00
2023-02-27T12:52:17.257Z,0.90
2023-02-27T12:54:57.907Z,0.80
2023-02-27T12:57:08.300Z,1.08
2023-02-27T12:59:48.151Z,1.00
2023-02-27T13:02:43.319Z,1.58
2023-02-27T13:05:30.469Z,1.27
2023-02-27T13:07:45.386Z,0.90
2023-02-27T13:10:02.327Z,0.90
2023-02-27T13:12:10.377Z,0.90
2023-02-27T13:14:26.802Z,1.10
2023-02-27T13:16:37.359Z,1.02
2023-02-27T13:19:05.825Z,0.90
2023-02-27T13:21:26.561Z,1.05
2023-02-27T13:23:47.983Z,0.90
2023-02-27T13:25:52.530Z,1.10
2023-02-27T13:28:00.364Z,0.70
2023-02-27T13:30:06.477Z,0.93
2023-02-27T13:32:30.000Z,0.80
2023-02-27T13:34:47.087Z,0.90
2023-02-27T13:36:58.164Z,0.90
2023-02-27T13:38:59.739Z,0.98
2023-02-27T13:41:24.097Z,0.90
2023-02-27T13:43:51.399Z,0.88
2023-02-27T13:45:58.077Z,0.70
2023-02-27T13:47:59.592Z,0.80
2023-02-27T13:50:04.057Z,0.65
2023-02-27T13:52:05.653Z,1.00
2023-02-27T13:54:16.669Z,1.30
2023-02-27T13:56:22.325Z,1.25
2023-02-27T13:58:27.073Z,2.72
2023-02-27T14:00:34.291Z,4.07
2023-02-27T14:02:57.816Z,4.68
2023-02-27T14:05:03.774Z,5.35
2023-02-27T14:07:15.472Z,4.90
2023-02-27T14:09:22.120Z,3.75
2023-02-27T14:11:28.365Z,3.17
2023-02-27T14:13:45.624Z,2.50
2023-02-27T14:15:47.409Z,2.13
2023-02-27T14:18:12.595Z,2.17
2023-02-27T14:20:19.187Z,1.90
2023-02-27T14:22:47.192Z,1.55
2023-02-27T14:25:02.787Z,1.75
2023-02-27T14:27:17.408Z,1.63
2023-02-27T14:29:23.408Z,1.63
2023-02-27T14:31:31.006Z,1.40
2023-02-27T14:33:48.429Z,1.75
2023-02-27T14:36:06.865Z,1.58
2023-02-27T14:38:11.793Z,1.50
2023-02-27T14:40:30.074Z,1.50
2023-02-27T14:42:54.960Z,2.00
2023-02-27T14:44:56.535Z,1.33
2023-02-27T14:47:02.704Z,1.73
2023-02-27T14:49:17.035Z,2.00
2023-02-27T14:51:18.994Z,1.58
2023-02-27T14:53:27.431Z,1.60
2023-02-27T14:55:34.394Z,1.60
2023-02-27T14:57:36.062Z,1.80
2023-02-27T14:59:46.656Z,1.70
2023-02-27T15:01:48.922Z,1.90
2023-02-27T15:03:57.505Z,1.55
2023-02-27T15:06:02.512Z,1.55
2023-02-27T15:08:04.536Z,1.63
2023-02-27T15:10:09.730Z,1.55
2023-02-27T15:12:18.407Z,1.50
2023-02-27T15:14:31.070Z,1.60
2023-02-27T15:16:39.238Z,1.30
2023-02-27T15:18:41.211Z,1.30
2023-02-27T15:20:42.939Z,1.35
2023-02-27T15:22:44.764Z,1.23
2023-02-27T15:24:50.476Z,1.55
2023-02-27T15:26:56.198Z,1.50
2023-02-27T15:29:08.251Z,1.27
2023-02-27T15:31:17.741Z,1.40
2023-02-27T15:33:24.692Z,1.48
2023-02-27T15:35:38.206Z,1.42
2023-02-27T15:37:56.746Z,1.40
2023-02-27T15:40:00.538Z,1.40
2023-02-27T15:42:05.074Z,1.30
2023-02-27T15:44:06.861Z,1.30
2023-02-27T15:46:08.776Z,1.38
2023-02-27T15:48:15.583Z,1.15
2023-02-27T15:50:17.160Z,1.23
2023-02-27T15:52:22.462Z,1.20
2023-02-27T15:54:24.185Z,1.40
2023-02-27T15:56:31.620Z,1.42
2023-02-27T15:58:43.711Z,1.75
2023-02-27T16:00:45.832Z,1.83
2023-02-27T16:02:54.373Z,1.63
2023-02-27T16:04:58.139Z,1.50
2023-02-27T16:07:15.704Z,2.03
2023-02-27T16:09:23.292Z,1.98
2023-02-27T16:11:29.698Z,2.55
2023-02-27T16:13:45.132Z,2.35
2023-02-27T16:16:26.541Z,2.20
2023-02-27T16:18:36.430Z,1.90
2023-02-27T16:20:55.014Z,1.83
2023-02-27T16:23:05.903Z,1.88
2023-02-27T16:25:18.472Z,2.22
2023-02-27T16:27:24.911Z,2.08
2023-02-27T16:29:35.872Z,2.40
2023-02-27T16:31:39.652Z,2.10
2023-02-27T16:33:44.437Z,2.67
2023-02-27T16:35:48.888Z,2.40
2023-02-27T16:37:51.568Z,2.23
2023-02-27T16:39:56.663Z,2.40
2023-02-27T16:41:59.983Z,2.95
2023-02-27T16:44:01.624Z,3.22
2023-02-27T16:46:07.643Z,3.33
2023-02-27T16:48:11.385Z,3.58
2023-02-27T16:50:30.386Z,3.37
2023-02-27T16:52:31.962Z,2.88
2023-02-27T16:54:38.219Z,2.92
2023-02-27T16:56:40.663Z,2.80
2023-02-27T16:58:42.788Z,2.17
2023-02-27T17:00:44.706Z,2.70
2023-02-27T17:02:49.281Z,2.95
2023-02-27T17:04:52.181Z,3.00
2023-02-27T17:07:00.231Z,2.80
2023-02-27T17:09:01.930Z,3.42
2023-02-27T17:11:06.171Z,4.25
2023-02-27T17:13:07.960Z,4.67
2023-02-27T17:15:10.444Z,3.97
2023-02-27T17:17:19.753Z,3.90
2023-02-27T17:19:22.224Z,3.90
2023-02-27T17:21:23.921Z,3.50
2023-02-27T17:23:25.643Z,3.20
2023-02-27T17:25:27.885Z,3.47
2023-02-27T17:27:29.831Z,3.57
2023-02-27T17:29:34.794Z,3.67
2023-02-27T17:31:37.174Z,3.80
2023-02-27T17:33:39.035Z,3.60
2023-02-27T17:35:40.789Z,3.97
2023-02-27T17:37:42.512Z,3.40
2023-02-27T17:39:44.112Z,3.77
2023-02-27T17:41:46.484Z,3.40
2023-02-27T17:43:52.113Z,3.33
2023-02-27T17:45:53.773Z,3.73
2023-02-27T17:47:55.591Z,3.57
2023-02-27T17:49:57.417Z,3.13
2023-02-27T17:52:03.637Z,3.40
2023-02-27T17:54:06.705Z,3.47
2023-02-27T17:56:09.392Z,3.27
2023-02-27T17:58:11.308Z,3.90
2023-02-27T18:00:15.059Z,3.70
2023-02-27T18:02:16.792Z,4.37
2023-02-27T18:04:18.671Z,4.10
2023-02-27T18:06:23.554Z,4.53
2023-02-27T18:08:25.738Z,4.50
2023-02-27T18:10:27.968Z,4.23
2023-02-27T18:12:29.816Z,3.90
2023-02-27T18:14:33.629Z,4.20
2023-02-27T18:16:35.994Z,4.07
2023-02-27T18:18:39.183Z,3.77
2023-02-27T18:20:41.580Z,4.20
2023-02-27T18:22:43.235Z,4.03
2023-02-27T18:24:44.887Z,4.00
2023-02-27T18:26:46.687Z,4.03
2023-02-27T18:28:52.898Z,3.90
2023-02-27T18:30:54.792Z,4.00
2023-02-27T18:32:57.938Z,3.97
2023-02-27T18:34:59.813Z,3.87
2023-02-27T18:37:01.622Z,4.33
2023-02-27T18:39:05.005Z,3.70
2023-02-27T18:41:09.241Z,3.90
2023-02-27T18:43:17.567Z,3.63
2023-02-27T18:45:19.824Z,4.07
2023-02-27T18:47:21.476Z,3.93
2023-02-27T18:49:25.309Z,4.07
2023-02-27T18:51:27.401Z,5.00
2023-02-27T18:53:29.202Z,4.97
2023-02-27T18:55:30.944Z,5.40
2023-02-27T18:57:32.582Z,5.20
2023-02-27T18:59:34.360Z,4.70
2023-02-27T19:01:39.222Z,4.73
2023-02-27T19:03:40.988Z,4.30
2023-02-27T19:05:43.144Z,3.70
2023-02-27T19:07:45.385Z,3.97
2023-02-27T19:09:47.298Z,3.53
2023-02-27T19:11:48.935Z,2.90
2023-02-27T19:13:50.605Z,3.03
2023-02-27T19:15:53.437Z,2.97
2023-02-27T19:17:55.170Z,2.93
2023-02-27T19:19:56.842Z,2.87
2023-02-27T19:21:59.047Z,3.07
2023-02-27T19:24:01.506Z,2.77
2023-02-27T19:26:03.178Z,2.30
2023-02-27T19:28:06.210Z,2.60
2023-02-27T19:30:08.665Z,2.47
2023-02-27T19:32:13.114Z,2.57
2023-02-27T19:34:17.376Z,2.60
2023-02-27T19:36:20.906Z,2.30
2023-02-27T19:38:22.770Z,2.70
2023-02-27T19:40:28.138Z,2.53
2023-02-27T19:42:29.651Z,2.53
2023-02-27T19:44:31.476Z,2.40
2023-02-27T19:46:34.634Z,2.40
2023-02-27T19:48:37.047Z,2.47
2023-02-27T19:50:40.198Z,2.50
2023-02-27T19:52:42.264Z,2.60
2023-02-27T19:54:44.017Z,2.00
2023-02-27T19:56:45.666Z,2.67
2023-02-27T19:58:51.353Z,2.80
2023-02-27T20:00:53.222Z,2.87
2023-02-27T20:02:55.130Z,2.90
2023-02-27T20:04:57.335Z,2.93
2023-02-27T20:06:59.072Z,2.93
2023-02-27T20:09:00.849Z,2.87
2023-02-27T20:11:04.532Z,3.10
2023-02-27T20:13:06.294Z,3.07
2023-02-27T20:15:11.564Z,2.80
2023-02-27T20:17:14.740Z,3.17
2023-02-27T20:19:18.179Z,2.70
2023-02-27T20:21:24.186Z,2.87
2023-02-27T20:23:26.412Z,2.70
2023-02-27T20:25:29.570Z,2.80
2023-02-27T20:27:31.336Z,2.50
2023-02-27T20:29:33.098Z,2.43
2023-02-27T20:31:37.171Z,2.50
2023-02-27T20:33:41.790Z,2.40
2023-02-27T20:35:43.615Z,2.50
2023-02-27T20:37:48.310Z,2.53
2023-02-27T20:39:50.726Z,2.33
2023-02-27T20:41:52.306Z,2.20
2023-02-27T20:43:54.423Z,2.37
2023-02-27T20:45:56.185Z,2.50
2023-02-27T20:47:57.845Z,3.00
2023-02-27T20:49:59.534Z,3.53
2023-02-27T20:52:01.300Z,3.67
2023-02-27T20:54:06.233Z,4.00
2023-02-27T20:56:11.302Z,3.47
2023-02-27T20:58:12.904Z,3.90
2023-02-27T21:00:15.482Z,3.77
2023-02-27T21:02:17.432Z,3.60
2023-02-27T21:04:26.466Z,3.70
2023-02-27T21:06:28.478Z,4.13
2023-02-27T21:08:34.602Z,3.83
2023-02-27T21:10:38.825Z,3.63
2023-02-27T21:12:40.458Z,4.37
2023-02-27T21:14:44.554Z,4.97
2023-02-27T21:16:48.533Z,5.30
2023-02-27T21:18:51.489Z,4.73
2023-02-27T21:20:53.101Z,6.17
2023-02-27T21:23:00.392Z,4.63
2023-02-27T21:25:02.166Z,4.80
2023-02-27T21:27:05.141Z,4.57
2023-02-27T21:29:10.235Z,4.23
2023-02-27T21:31:12.027Z,4.10
2023-02-27T21:33:16.266Z,3.17
2023-02-27T21:35:19.516Z,3.37
2023-02-27T21:37:21.146Z,3.67
2023-02-27T21:39:25.889Z,3.37
2023-02-27T21:41:29.054Z,3.47
2023-02-27T21:43:31.741Z,4.57
2023-02-27T21:45:36.640Z,4.33
2023-02-27T21:47:38.253Z,4.67
2023-02-27T21:49:40.064Z,4.83
2023-02-27T21:51:42.056Z,4.50
2023-02-27T21:53:43.986Z,5.23
2023-02-27T21:55:45.823Z,4.50
2023-02-27T21:57:52.726Z,4.20
2023-02-27T21:59:54.382Z,3.80
2023-02-27T22:01:57.324Z,3.93
2023-02-27T22:03:59.458Z,3.37
2023-02-27T22:06:02.147Z,4.70
2023-02-27T22:08:06.610Z,3.90
2023-02-27T22:10:09.157Z,3.43
2023-02-27T22:12:10.728Z,3.60
2023-02-27T22:14:21.649Z,3.40
2023-02-27T22:16:24.360Z,3.50
2023-02-27T22:18:27.304Z,3.43
2023-02-27T22:20:29.013Z,3.67
2023-02-27T22:22:30.631Z,3.60
2023-02-27T22:24:32.343Z,3.60
2023-02-27T22:26:34.601Z,3.70
2023-02-27T22:28:41.300Z,3.77
2023-02-27T22:30:42.973Z,4.00
2023-02-27T22:32:44.555Z,3.90
2023-02-27T22:34:46.372Z,4.07
2023-02-27T22:36:52.248Z,4.10
2023-02-27T22:38:53.961Z,3.80
2023-02-27T22:40:58.447Z,3.93
2023-02-27T22:43:03.620Z,3.67
2023-02-27T22:45:05.810Z,3.27
2023-02-27T22:47:07.532Z,4.00
2023-02-27T22:49:21.668Z,4.00
2023-02-27T22:51:25.388Z,4.03
2023-02-27T22:53:26.903Z,4.17
2023-02-27T22:55:37.432Z,3.60
2023-02-27T22:57:39.183Z,4.03
2023-02-27T22:59:40.925Z,3.57
2023-02-27T23:01:42.620Z,4.13
2023-02-27T23:03:45.808Z,3.87
2023-02-27T23:05:50.596Z,3.47
2023-02-27T23:07:52.227Z,4.13
2023-02-27T23:09:53.818Z,3.90
2023-02-27T23:11:55.703Z,3.50
2023-02-27T23:13:59.409Z,3.67
2023-02-27T23:16:02.283Z,3.40
2023-02-27T23:18:05.320Z,3.30
2023-02-27T23:20:07.361Z,3.00
2023-02-27T23:22:10.983Z,2.97
2023-02-27T23:24:15.339Z,3.10
2023-02-27T23:26:17.019Z,3.00
2023-02-27T23:28:18.533Z,3.07
2023-02-27T23:30:21.570Z,2.60
2023-02-27T23:32:23.503Z,2.90
2023-02-27T23:34:25.172Z,2.63
2023-02-27T23:36:26.827Z,2.90
2023-02-27T23:38:29.260Z,3.00
2023-02-27T23:40:30.854Z,2.70
2023-02-27T23:42:35.950Z,3.10
2023-02-27T23:44:37.471Z,3.30
2023-02-27T23:46:39.665Z,3.13
2023-02-27T23:48:42.228Z,3.60
2023-02-27T23:50:44.870Z,3.30
2023-02-27T23:52:49.953Z,3.50
2023-02-27T23:54:51.507Z,3.23
2023-02-27T23:56:53.100Z,3.20
2023-02-27T23:59:01.597Z,3.23
